sensor_id;sensor_type;location;lat;lon;timestamp;P1;durP1;ratioP1;P2;durP2;ratioP2
11084;SDS011;5596;46.826;8.650;2022-11-20T00:01:26;3.17;;;1.30;;
11084;SDS011;5596;46.826;8.650;2022-11-20T00:03:54;1.70;;;1.33;;
11084;SDS011;5596;46.826;8.650;2022-11-20T00:06:24;1.50;;;1.40;;
11084;SDS011;5596;46.826;8.650;2022-11-20T00:08:53;1.40;;;1.30;;
11084;SDS011;5596;46.826;8.650;2022-11-20T00:11:22;1.40;;;1.20;;
11084;SDS011;5596;46.826;8.650;2022-11-20T00:13:50;1.40;;;1.20;;
11084;SDS011;5596;46.826;8.650;2022-11-20T00:16:20;1.77;;;1.20;;
11084;SDS011;5596;46.826;8.650;2022-11-20T00:18:50;1.20;;;1.10;;
11084;SDS011;5596;46.826;8.650;2022-11-20T00:21:17;1.53;;;1.40;;
11084;SDS011;5596;46.826;8.650;2022-11-20T00:23:48;1.90;;;1.50;;
11084;SDS011;5596;46.826;8.650;2022-11-20T00:26:16;1.87;;;1.40;;
11084;SDS011;5596;46.826;8.650;2022-11-20T00:28:49;1.70;;;1.43;;
11084;SDS011;5596;46.826;8.650;2022-11-20T00:31:18;1.73;;;1.20;;
11084;SDS011;5596;46.826;8.650;2022-11-20T00:33:45;1.30;;;1.20;;
11084;SDS011;5596;46.826;8.650;2022-11-20T00:36:13;1.43;;;1.20;;
11084;SDS011;5596;46.826;8.650;2022-11-20T00:38:42;1.90;;;1.40;;
11084;SDS011;5596;46.826;8.650;2022-11-20T00:41:12;1.40;;;1.30;;
11084;SDS011;5596;46.826;8.650;2022-11-20T00:43:40;1.30;;;1.20;;
11084;SDS011;5596;46.826;8.650;2022-11-20T00:46:10;3.33;;;1.50;;
11084;SDS011;5596;46.826;8.650;2022-11-20T00:48:40;1.73;;;1.50;;
11084;SDS011;5596;46.826;8.650;2022-11-20T00:51:07;1.83;;;1.50;;
11084;SDS011;5596;46.826;8.650;2022-11-20T00:53:34;2.00;;;1.37;;
11084;SDS011;5596;46.826;8.650;2022-11-20T00:56:02;2.53;;;1.40;;
11084;SDS011;5596;46.826;8.650;2022-11-20T00:58:33;1.80;;;1.30;;
11084;SDS011;5596;46.826;8.650;2022-11-20T01:01:04;3.03;;;1.40;;
11084;SDS011;5596;46.826;8.650;2022-11-20T01:03:33;1.70;;;1.17;;
11084;SDS011;5596;46.826;8.650;2022-11-20T01:06:00;1.70;;;1.43;;
11084;SDS011;5596;46.826;8.650;2022-11-20T01:08:31;1.50;;;1.33;;
11084;SDS011;5596;46.826;8.650;2022-11-20T01:11:00;1.53;;;1.40;;
11084;SDS011;5596;46.826;8.650;2022-11-20T01:13:28;1.97;;;1.40;;
11084;SDS011;5596;46.826;8.650;2022-11-20T01:16:09;2.63;;;1.13;;
11084;SDS011;5596;46.826;8.650;2022-11-20T01:18:38;2.60;;;1.40;;
11084;SDS011;5596;46.826;8.650;2022-11-20T01:21:08;1.50;;;1.30;;
11084;SDS011;5596;46.826;8.650;2022-11-20T01:23:38;2.20;;;1.53;;
11084;SDS011;5596;46.826;8.650;2022-11-20T01:26:07;2.57;;;1.50;;
11084;SDS011;5596;46.826;8.650;2022-11-20T01:28:36;2.17;;;1.20;;
11084;SDS011;5596;46.826;8.650;2022-11-20T01:31:12;2.07;;;1.40;;
11084;SDS011;5596;46.826;8.650;2022-11-20T01:33:40;1.80;;;1.20;;
11084;SDS011;5596;46.826;8.650;2022-11-20T01:36:07;1.43;;;1.30;;
11084;SDS011;5596;46.826;8.650;2022-11-20T01:38:35;1.40;;;1.30;;
11084;SDS011;5596;46.826;8.650;2022-11-20T01:41:03;1.43;;;1.20;;
11084;SDS011;5596;46.826;8.650;2022-11-20T01:43:30;2.53;;;1.20;;
11084;SDS011;5596;46.826;8.650;2022-11-20T01:45:58;1.30;;;1.10;;
11084;SDS011;5596;46.826;8.650;2022-11-20T01:48:43;1.53;;;1.10;;
11084;SDS011;5596;46.826;8.650;2022-11-20T01:51:17;1.53;;;1.20;;
11084;SDS011;5596;46.826;8.650;2022-11-20T01:53:50;1.33;;;1.10;;
11084;SDS011;5596;46.826;8.650;2022-11-20T01:56:19;1.40;;;1.30;;
11084;SDS011;5596;46.826;8.650;2022-11-20T01:58:47;1.60;;;1.50;;
11084;SDS011;5596;46.826;8.650;2022-11-20T02:01:20;2.67;;;1.23;;
11084;SDS011;5596;46.826;8.650;2022-11-20T02:03:47;1.83;;;1.50;;
11084;SDS011;5596;46.826;8.650;2022-11-20T02:06:16;1.30;;;1.20;;
11084;SDS011;5596;46.826;8.650;2022-11-20T02:08:47;1.57;;;1.40;;
11084;SDS011;5596;46.826;8.650;2022-11-20T02:11:14;2.47;;;1.57;;
11084;SDS011;5596;46.826;8.650;2022-11-20T02:13:41;1.83;;;1.40;;
11084;SDS011;5596;46.826;8.650;2022-11-20T02:16:12;1.20;;;1.10;;
11084;SDS011;5596;46.826;8.650;2022-11-20T02:18:43;3.00;;;1.30;;
11084;SDS011;5596;46.826;8.650;2022-11-20T02:21:20;2.60;;;1.40;;
11084;SDS011;5596;46.826;8.650;2022-11-20T02:23:57;2.57;;;1.47;;
11084;SDS011;5596;46.826;8.650;2022-11-20T02:26:26;1.23;;;1.13;;
11084;SDS011;5596;46.826;8.650;2022-11-20T02:28:56;1.67;;;1.47;;
11084;SDS011;5596;46.826;8.650;2022-11-20T02:31:27;1.53;;;1.17;;
11084;SDS011;5596;46.826;8.650;2022-11-20T02:33:54;1.90;;;1.33;;
11084;SDS011;5596;46.826;8.650;2022-11-20T02:36:22;1.83;;;1.23;;
11084;SDS011;5596;46.826;8.650;2022-11-20T02:38:52;3.00;;;1.30;;
11084;SDS011;5596;46.826;8.650;2022-11-20T02:41:21;1.60;;;1.30;;
11084;SDS011;5596;46.826;8.650;2022-11-20T02:43:56;2.03;;;1.30;;
11084;SDS011;5596;46.826;8.650;2022-11-20T02:46:23;3.77;;;1.33;;
11084;SDS011;5596;46.826;8.650;2022-11-20T02:48:50;1.73;;;1.57;;
11084;SDS011;5596;46.826;8.650;2022-11-20T02:51:17;1.30;;;1.20;;
11084;SDS011;5596;46.826;8.650;2022-11-20T02:53:44;1.70;;;1.40;;
11084;SDS011;5596;46.826;8.650;2022-11-20T02:56:11;1.50;;;1.40;;
11084;SDS011;5596;46.826;8.650;2022-11-20T02:58:40;2.03;;;1.60;;
11084;SDS011;5596;46.826;8.650;2022-11-20T03:01:07;1.70;;;1.60;;
11084;SDS011;5596;46.826;8.650;2022-11-20T03:03:34;1.30;;;1.20;;
11084;SDS011;5596;46.826;8.650;2022-11-20T03:06:01;2.53;;;1.40;;
11084;SDS011;5596;46.826;8.650;2022-11-20T03:08:29;2.17;;;1.60;;
11084;SDS011;5596;46.826;8.650;2022-11-20T03:10:56;1.20;;;1.10;;
11084;SDS011;5596;46.826;8.650;2022-11-20T03:13:24;1.30;;;1.20;;
11084;SDS011;5596;46.826;8.650;2022-11-20T03:15:52;2.30;;;1.50;;
11084;SDS011;5596;46.826;8.650;2022-11-20T03:18:20;2.47;;;1.27;;
11084;SDS011;5596;46.826;8.650;2022-11-20T03:20:46;2.17;;;1.30;;
11084;SDS011;5596;46.826;8.650;2022-11-20T03:23:14;2.90;;;1.30;;
11084;SDS011;5596;46.826;8.650;2022-11-20T03:25:41;1.40;;;1.30;;
11084;SDS011;5596;46.826;8.650;2022-11-20T03:28:08;2.23;;;1.30;;
11084;SDS011;5596;46.826;8.650;2022-11-20T03:30:35;1.50;;;1.40;;
11084;SDS011;5596;46.826;8.650;2022-11-20T03:33:04;1.60;;;1.50;;
11084;SDS011;5596;46.826;8.650;2022-11-20T03:35:33;2.93;;;1.60;;
11084;SDS011;5596;46.826;8.650;2022-11-20T03:38:00;1.67;;;1.53;;
11084;SDS011;5596;46.826;8.650;2022-11-20T03:40:27;1.77;;;1.60;;
11084;SDS011;5596;46.826;8.650;2022-11-20T03:42:54;1.93;;;1.50;;
11084;SDS011;5596;46.826;8.650;2022-11-20T03:45:21;1.57;;;1.47;;
11084;SDS011;5596;46.826;8.650;2022-11-20T03:47:48;1.60;;;1.50;;
11084;SDS011;5596;46.826;8.650;2022-11-20T03:50:17;1.80;;;1.70;;
11084;SDS011;5596;46.826;8.650;2022-11-20T03:52:44;2.80;;;1.97;;
11084;SDS011;5596;46.826;8.650;2022-11-20T03:55:11;1.97;;;1.63;;
11084;SDS011;5596;46.826;8.650;2022-11-20T03:57:38;2.23;;;1.70;;
11084;SDS011;5596;46.826;8.650;2022-11-20T04:00:05;2.87;;;2.00;;
11084;SDS011;5596;46.826;8.650;2022-11-20T04:02:33;2.97;;;2.27;;
11084;SDS011;5596;46.826;8.650;2022-11-20T04:05:01;3.00;;;1.97;;
11084;SDS011;5596;46.826;8.650;2022-11-20T04:07:29;3.90;;;2.27;;
11084;SDS011;5596;46.826;8.650;2022-11-20T04:09:57;2.60;;;1.80;;
11084;SDS011;5596;46.826;8.650;2022-11-20T04:12:24;2.70;;;2.13;;
11084;SDS011;5596;46.826;8.650;2022-11-20T04:14:51;2.40;;;1.70;;
11084;SDS011;5596;46.826;8.650;2022-11-20T04:17:18;4.27;;;2.30;;
11084;SDS011;5596;46.826;8.650;2022-11-20T04:19:46;2.50;;;2.10;;
11084;SDS011;5596;46.826;8.650;2022-11-20T04:22:13;3.30;;;2.17;;
11084;SDS011;5596;46.826;8.650;2022-11-20T04:24:41;3.00;;;2.30;;
11084;SDS011;5596;46.826;8.650;2022-11-20T04:27:08;4.23;;;2.30;;
11084;SDS011;5596;46.826;8.650;2022-11-20T04:29:35;2.47;;;1.83;;
11084;SDS011;5596;46.826;8.650;2022-11-20T04:32:02;2.50;;;2.30;;
11084;SDS011;5596;46.826;8.650;2022-11-20T04:34:29;2.40;;;2.00;;
11084;SDS011;5596;46.826;8.650;2022-11-20T04:36:56;3.00;;;2.50;;
11084;SDS011;5596;46.826;8.650;2022-11-20T04:39:23;2.33;;;2.10;;
11084;SDS011;5596;46.826;8.650;2022-11-20T04:41:51;2.30;;;2.10;;
11084;SDS011;5596;46.826;8.650;2022-11-20T04:44:38;3.17;;;2.20;;
11084;SDS011;5596;46.826;8.650;2022-11-20T04:47:05;12.97;;;8.43;;
11084;SDS011;5596;46.826;8.650;2022-11-20T04:49:32;4.30;;;3.00;;
11084;SDS011;5596;46.826;8.650;2022-11-20T04:52:00;5.23;;;3.13;;
11084;SDS011;5596;46.826;8.650;2022-11-20T04:54:27;3.60;;;2.97;;
11084;SDS011;5596;46.826;8.650;2022-11-20T04:56:55;3.43;;;2.50;;
11084;SDS011;5596;46.826;8.650;2022-11-20T04:59:22;2.57;;;2.23;;
11084;SDS011;5596;46.826;8.650;2022-11-20T05:01:49;2.40;;;2.20;;
11084;SDS011;5596;46.826;8.650;2022-11-20T05:04:16;3.87;;;2.47;;
11084;SDS011;5596;46.826;8.650;2022-11-20T05:06:43;2.67;;;2.20;;
11084;SDS011;5596;46.826;8.650;2022-11-20T05:09:10;2.77;;;2.17;;
11084;SDS011;5596;46.826;8.650;2022-11-20T05:11:37;2.60;;;2.20;;
11084;SDS011;5596;46.826;8.650;2022-11-20T05:14:06;2.83;;;2.03;;
11084;SDS011;5596;46.826;8.650;2022-11-20T05:16:33;2.40;;;2.10;;
11084;SDS011;5596;46.826;8.650;2022-11-20T05:19:01;3.53;;;2.37;;
11084;SDS011;5596;46.826;8.650;2022-11-20T05:21:29;4.30;;;2.10;;
11084;SDS011;5596;46.826;8.650;2022-11-20T05:23:57;2.90;;;2.30;;
11084;SDS011;5596;46.826;8.650;2022-11-20T05:26:24;3.60;;;2.30;;
11084;SDS011;5596;46.826;8.650;2022-11-20T05:28:51;3.53;;;2.63;;
11084;SDS011;5596;46.826;8.650;2022-11-20T05:31:21;5.53;;;2.70;;
11084;SDS011;5596;46.826;8.650;2022-11-20T05:33:49;3.50;;;2.90;;
11084;SDS011;5596;46.826;8.650;2022-11-20T05:36:17;3.03;;;2.43;;
11084;SDS011;5596;46.826;8.650;2022-11-20T05:38:44;3.33;;;2.77;;
11084;SDS011;5596;46.826;8.650;2022-11-20T05:41:12;3.30;;;2.60;;
11084;SDS011;5596;46.826;8.650;2022-11-20T05:43:41;2.87;;;2.57;;
11084;SDS011;5596;46.826;8.650;2022-11-20T05:46:09;3.57;;;2.90;;
11084;SDS011;5596;46.826;8.650;2022-11-20T05:48:40;3.30;;;2.77;;
11084;SDS011;5596;46.826;8.650;2022-11-20T05:51:10;4.00;;;2.70;;
11084;SDS011;5596;46.826;8.650;2022-11-20T05:53:38;2.87;;;2.47;;
11084;SDS011;5596;46.826;8.650;2022-11-20T05:56:07;3.87;;;2.00;;
11084;SDS011;5596;46.826;8.650;2022-11-20T05:58:36;2.80;;;2.40;;
11084;SDS011;5596;46.826;8.650;2022-11-20T06:01:05;4.03;;;2.63;;
11084;SDS011;5596;46.826;8.650;2022-11-20T06:03:33;2.10;;;1.80;;
11084;SDS011;5596;46.826;8.650;2022-11-20T06:06:02;2.10;;;1.90;;
11084;SDS011;5596;46.826;8.650;2022-11-20T06:08:30;1.90;;;1.60;;
11084;SDS011;5596;46.826;8.650;2022-11-20T06:10:57;2.20;;;1.70;;
11084;SDS011;5596;46.826;8.650;2022-11-20T06:13:24;2.10;;;1.63;;
11084;SDS011;5596;46.826;8.650;2022-11-20T06:15:52;2.13;;;1.63;;
11084;SDS011;5596;46.826;8.650;2022-11-20T06:18:19;2.33;;;1.50;;
11084;SDS011;5596;46.826;8.650;2022-11-20T06:20:47;7.17;;;2.07;;
11084;SDS011;5596;46.826;8.650;2022-11-20T06:23:16;3.07;;;2.60;;
11084;SDS011;5596;46.826;8.650;2022-11-20T06:25:43;1.90;;;1.60;;
11084;SDS011;5596;46.826;8.650;2022-11-20T06:28:10;1.73;;;1.57;;
11084;SDS011;5596;46.826;8.650;2022-11-20T06:30:37;1.97;;;1.40;;
11084;SDS011;5596;46.826;8.650;2022-11-20T06:33:10;2.73;;;1.90;;
11084;SDS011;5596;46.826;8.650;2022-11-20T06:35:37;2.33;;;2.00;;
11084;SDS011;5596;46.826;8.650;2022-11-20T06:38:05;3.07;;;1.60;;
11084;SDS011;5596;46.826;8.650;2022-11-20T06:40:33;1.73;;;1.50;;
11084;SDS011;5596;46.826;8.650;2022-11-20T06:43:00;2.00;;;1.60;;
11084;SDS011;5596;46.826;8.650;2022-11-20T06:45:27;1.80;;;1.60;;
11084;SDS011;5596;46.826;8.650;2022-11-20T06:47:56;1.80;;;1.70;;
11084;SDS011;5596;46.826;8.650;2022-11-20T06:50:23;1.70;;;1.60;;
11084;SDS011;5596;46.826;8.650;2022-11-20T06:52:50;2.17;;;1.97;;
11084;SDS011;5596;46.826;8.650;2022-11-20T06:55:18;3.03;;;1.70;;
11084;SDS011;5596;46.826;8.650;2022-11-20T06:57:46;2.03;;;1.93;;
11084;SDS011;5596;46.826;8.650;2022-11-20T07:00:13;2.23;;;1.73;;
11084;SDS011;5596;46.826;8.650;2022-11-20T07:02:42;2.00;;;1.80;;
11084;SDS011;5596;46.826;8.650;2022-11-20T07:05:10;2.23;;;2.03;;
11084;SDS011;5596;46.826;8.650;2022-11-20T07:07:37;1.70;;;1.60;;
11084;SDS011;5596;46.826;8.650;2022-11-20T07:10:07;1.67;;;1.57;;
11084;SDS011;5596;46.826;8.650;2022-11-20T07:12:38;1.90;;;1.67;;
11084;SDS011;5596;46.826;8.650;2022-11-20T07:15:08;3.77;;;2.97;;
11084;SDS011;5596;46.826;8.650;2022-11-20T07:17:35;3.30;;;2.20;;
11084;SDS011;5596;46.826;8.650;2022-11-20T07:20:02;4.27;;;3.40;;
11084;SDS011;5596;46.826;8.650;2022-11-20T07:22:30;2.83;;;2.50;;
11084;SDS011;5596;46.826;8.650;2022-11-20T07:24:57;3.17;;;2.50;;
11084;SDS011;5596;46.826;8.650;2022-11-20T07:27:24;3.13;;;2.47;;
11084;SDS011;5596;46.826;8.650;2022-11-20T07:29:51;4.77;;;4.27;;
11084;SDS011;5596;46.826;8.650;2022-11-20T07:32:19;1.90;;;1.60;;
11084;SDS011;5596;46.826;8.650;2022-11-20T07:34:46;1.60;;;1.50;;
11084;SDS011;5596;46.826;8.650;2022-11-20T07:37:15;4.27;;;2.60;;
11084;SDS011;5596;46.826;8.650;2022-11-20T07:39:42;2.10;;;1.90;;
11084;SDS011;5596;46.826;8.650;2022-11-20T07:42:09;2.43;;;2.10;;
11084;SDS011;5596;46.826;8.650;2022-11-20T07:44:37;4.77;;;2.20;;
11084;SDS011;5596;46.826;8.650;2022-11-20T07:47:06;2.57;;;2.20;;
11084;SDS011;5596;46.826;8.650;2022-11-20T07:49:35;3.20;;;1.80;;
11084;SDS011;5596;46.826;8.650;2022-11-20T07:52:02;3.03;;;2.00;;
11084;SDS011;5596;46.826;8.650;2022-11-20T07:54:29;2.10;;;1.80;;
11084;SDS011;5596;46.826;8.650;2022-11-20T07:56:56;1.80;;;1.70;;
11084;SDS011;5596;46.826;8.650;2022-11-20T07:59:23;3.50;;;2.00;;
11084;SDS011;5596;46.826;8.650;2022-11-20T08:01:50;2.83;;;2.00;;
11084;SDS011;5596;46.826;8.650;2022-11-20T08:04:18;3.20;;;2.70;;
11084;SDS011;5596;46.826;8.650;2022-11-20T08:06:46;4.07;;;3.30;;
11084;SDS011;5596;46.826;8.650;2022-11-20T08:09:17;5.23;;;4.47;;
11084;SDS011;5596;46.826;8.650;2022-11-20T08:11:44;4.73;;;4.23;;
11084;SDS011;5596;46.826;8.650;2022-11-20T08:14:28;4.37;;;3.73;;
11084;SDS011;5596;46.826;8.650;2022-11-20T08:16:55;6.40;;;3.50;;
11084;SDS011;5596;46.826;8.650;2022-11-20T08:19:22;5.50;;;4.20;;
11084;SDS011;5596;46.826;8.650;2022-11-20T08:21:50;7.07;;;5.70;;
11084;SDS011;5596;46.826;8.650;2022-11-20T08:24:17;5.63;;;4.47;;
11084;SDS011;5596;46.826;8.650;2022-11-20T08:26:44;4.67;;;3.67;;
11084;SDS011;5596;46.826;8.650;2022-11-20T08:29:14;4.57;;;3.90;;
11084;SDS011;5596;46.826;8.650;2022-11-20T08:31:41;5.17;;;3.70;;
11084;SDS011;5596;46.826;8.650;2022-11-20T08:34:11;4.67;;;3.40;;
11084;SDS011;5596;46.826;8.650;2022-11-20T08:36:39;4.33;;;3.33;;
11084;SDS011;5596;46.826;8.650;2022-11-20T08:39:07;3.77;;;2.93;;
11084;SDS011;5596;46.826;8.650;2022-11-20T08:41:34;3.20;;;2.67;;
11084;SDS011;5596;46.826;8.650;2022-11-20T08:44:02;4.37;;;3.10;;
11084;SDS011;5596;46.826;8.650;2022-11-20T08:46:32;3.40;;;3.10;;
11084;SDS011;5596;46.826;8.650;2022-11-20T08:49:01;4.73;;;3.43;;
11084;SDS011;5596;46.826;8.650;2022-11-20T08:51:29;4.23;;;3.03;;
11084;SDS011;5596;46.826;8.650;2022-11-20T08:53:56;3.93;;;2.90;;
11084;SDS011;5596;46.826;8.650;2022-11-20T08:56:25;4.20;;;3.47;;
11084;SDS011;5596;46.826;8.650;2022-11-20T08:58:52;5.20;;;3.97;;
11084;SDS011;5596;46.826;8.650;2022-11-20T09:01:19;3.30;;;3.00;;
11084;SDS011;5596;46.826;8.650;2022-11-20T09:03:48;4.40;;;4.00;;
11084;SDS011;5596;46.826;8.650;2022-11-20T09:06:16;4.93;;;3.97;;
11084;SDS011;5596;46.826;8.650;2022-11-20T09:08:43;3.73;;;2.90;;
11084;SDS011;5596;46.826;8.650;2022-11-20T09:11:11;5.63;;;2.50;;
11084;SDS011;5596;46.826;8.650;2022-11-20T09:13:39;3.80;;;3.00;;
11084;SDS011;5596;46.826;8.650;2022-11-20T09:16:07;3.30;;;2.43;;
11084;SDS011;5596;46.826;8.650;2022-11-20T09:18:35;3.43;;;2.70;;
11084;SDS011;5596;46.826;8.650;2022-11-20T09:21:04;2.83;;;2.43;;
11084;SDS011;5596;46.826;8.650;2022-11-20T09:23:33;4.03;;;3.10;;
11084;SDS011;5596;46.826;8.650;2022-11-20T09:26:02;4.03;;;3.40;;
11084;SDS011;5596;46.826;8.650;2022-11-20T09:28:30;4.30;;;3.50;;
11084;SDS011;5596;46.826;8.650;2022-11-20T09:30:59;3.50;;;3.13;;
11084;SDS011;5596;46.826;8.650;2022-11-20T09:33:26;6.27;;;5.60;;
11084;SDS011;5596;46.826;8.650;2022-11-20T09:35:53;6.33;;;4.57;;
11084;SDS011;5596;46.826;8.650;2022-11-20T09:38:23;4.83;;;3.47;;
11084;SDS011;5596;46.826;8.650;2022-11-20T09:40:51;3.30;;;3.00;;
11084;SDS011;5596;46.826;8.650;2022-11-20T09:43:25;3.47;;;2.60;;
11084;SDS011;5596;46.826;8.650;2022-11-20T09:46:07;3.17;;;2.87;;
11084;SDS011;5596;46.826;8.650;2022-11-20T09:48:45;3.07;;;2.60;;
11084;SDS011;5596;46.826;8.650;2022-11-20T09:51:25;3.67;;;2.70;;
11084;SDS011;5596;46.826;8.650;2022-11-20T09:54:08;3.20;;;2.90;;
11084;SDS011;5596;46.826;8.650;2022-11-20T09:56:44;4.80;;;3.90;;
11084;SDS011;5596;46.826;8.650;2022-11-20T09:59:22;4.93;;;3.83;;
11084;SDS011;5596;46.826;8.650;2022-11-20T10:01:58;9.23;;;4.83;;
11084;SDS011;5596;46.826;8.650;2022-11-20T10:04:30;6.33;;;4.00;;
11084;SDS011;5596;46.826;8.650;2022-11-20T10:07:01;3.40;;;2.63;;
11084;SDS011;5596;46.826;8.650;2022-11-20T10:09:34;2.30;;;2.10;;
11084;SDS011;5596;46.826;8.650;2022-11-20T10:12:06;3.10;;;2.00;;
11084;SDS011;5596;46.826;8.650;2022-11-20T10:14:50;3.00;;;2.20;;
11084;SDS011;5596;46.826;8.650;2022-11-20T10:17:36;2.17;;;1.90;;
11084;SDS011;5596;46.826;8.650;2022-11-20T10:20:27;2.50;;;2.20;;
11084;SDS011;5596;46.826;8.650;2022-11-20T10:23:11;2.37;;;1.70;;
11084;SDS011;5596;46.826;8.650;2022-11-20T10:26:17;1.70;;;1.40;;
11084;SDS011;5596;46.826;8.650;2022-11-20T10:29:01;1.97;;;1.77;;
11084;SDS011;5596;46.826;8.650;2022-11-20T10:31:37;3.53;;;1.93;;
11084;SDS011;5596;46.826;8.650;2022-11-20T10:34:12;2.67;;;1.90;;
11084;SDS011;5596;46.826;8.650;2022-11-20T10:36:47;2.00;;;1.53;;
11084;SDS011;5596;46.826;8.650;2022-11-20T10:39:23;2.07;;;1.63;;
11084;SDS011;5596;46.826;8.650;2022-11-20T10:41:57;1.97;;;1.80;;
11084;SDS011;5596;46.826;8.650;2022-11-20T10:44:28;3.47;;;1.90;;
11084;SDS011;5596;46.826;8.650;2022-11-20T10:47:14;3.63;;;1.80;;
11084;SDS011;5596;46.826;8.650;2022-11-20T10:49:45;2.07;;;1.87;;
11084;SDS011;5596;46.826;8.650;2022-11-20T10:52:17;1.80;;;1.70;;
11084;SDS011;5596;46.826;8.650;2022-11-20T10:54:53;2.37;;;1.93;;
11084;SDS011;5596;46.826;8.650;2022-11-20T10:57:30;1.87;;;1.70;;
11084;SDS011;5596;46.826;8.650;2022-11-20T11:00:09;2.40;;;1.70;;
11084;SDS011;5596;46.826;8.650;2022-11-20T11:02:43;2.90;;;1.90;;
11084;SDS011;5596;46.826;8.650;2022-11-20T11:05:20;2.57;;;1.77;;
11084;SDS011;5596;46.826;8.650;2022-11-20T11:07:56;1.80;;;1.70;;
11084;SDS011;5596;46.826;8.650;2022-11-20T11:10:26;2.43;;;2.10;;
11084;SDS011;5596;46.826;8.650;2022-11-20T11:12:59;1.97;;;1.80;;
11084;SDS011;5596;46.826;8.650;2022-11-20T11:15:28;4.40;;;1.87;;
11084;SDS011;5596;46.826;8.650;2022-11-20T11:17:56;4.67;;;2.10;;
11084;SDS011;5596;46.826;8.650;2022-11-20T11:20:25;2.33;;;2.13;;
11084;SDS011;5596;46.826;8.650;2022-11-20T11:22:53;2.70;;;2.27;;
11084;SDS011;5596;46.826;8.650;2022-11-20T11:25:23;2.93;;;2.00;;
11084;SDS011;5596;46.826;8.650;2022-11-20T11:27:54;2.37;;;1.97;;
11084;SDS011;5596;46.826;8.650;2022-11-20T11:30:23;3.23;;;1.90;;
11084;SDS011;5596;46.826;8.650;2022-11-20T11:33:01;2.10;;;1.70;;
11084;SDS011;5596;46.826;8.650;2022-11-20T11:35:32;2.20;;;1.83;;
11084;SDS011;5596;46.826;8.650;2022-11-20T11:38:03;1.80;;;1.70;;
11084;SDS011;5596;46.826;8.650;2022-11-20T11:40:34;2.33;;;2.03;;
11084;SDS011;5596;46.826;8.650;2022-11-20T11:43:05;2.07;;;1.70;;
11084;SDS011;5596;46.826;8.650;2022-11-20T11:45:54;4.20;;;1.90;;
11084;SDS011;5596;46.826;8.650;2022-11-20T11:48:21;2.80;;;1.97;;
11084;SDS011;5596;46.826;8.650;2022-11-20T11:50:50;2.33;;;1.90;;
11084;SDS011;5596;46.826;8.650;2022-11-20T11:53:19;2.23;;;1.70;;
11084;SDS011;5596;46.826;8.650;2022-11-20T11:55:50;2.67;;;1.90;;
11084;SDS011;5596;46.826;8.650;2022-11-20T11:58:33;2.33;;;1.87;;
11084;SDS011;5596;46.826;8.650;2022-11-20T12:01:20;2.10;;;1.90;;
11084;SDS011;5596;46.826;8.650;2022-11-20T12:03:55;3.40;;;2.00;;
11084;SDS011;5596;46.826;8.650;2022-11-20T12:06:32;3.27;;;2.53;;
11084;SDS011;5596;46.826;8.650;2022-11-20T12:09:04;1.93;;;1.80;;
11084;SDS011;5596;46.826;8.650;2022-11-20T12:11:37;2.87;;;1.90;;
11084;SDS011;5596;46.826;8.650;2022-11-20T12:14:11;2.00;;;1.70;;
11084;SDS011;5596;46.826;8.650;2022-11-20T12:16:49;2.97;;;1.83;;
11084;SDS011;5596;46.826;8.650;2022-11-20T12:19:18;3.60;;;1.90;;
11084;SDS011;5596;46.826;8.650;2022-11-20T12:21:51;1.87;;;1.63;;
11084;SDS011;5596;46.826;8.650;2022-11-20T12:30:16;2.63;;;1.80;;
11084;SDS011;5596;46.826;8.650;2022-11-20T12:32:48;2.50;;;2.30;;
11084;SDS011;5596;46.826;8.650;2022-11-20T12:35:40;2.07;;;1.90;;
11084;SDS011;5596;46.826;8.650;2022-11-20T12:38:22;2.40;;;1.80;;
11084;SDS011;5596;46.826;8.650;2022-11-20T12:41:11;5.60;;;2.30;;
11084;SDS011;5596;46.826;8.650;2022-11-20T12:44:02;3.50;;;2.10;;
11084;SDS011;5596;46.826;8.650;2022-11-20T12:46:53;5.00;;;1.90;;
11084;SDS011;5596;46.826;8.650;2022-11-20T12:49:34;2.03;;;1.80;;
11084;SDS011;5596;46.826;8.650;2022-11-20T12:52:15;1.83;;;1.50;;
11084;SDS011;5596;46.826;8.650;2022-11-20T12:55:16;2.63;;;1.70;;
11084;SDS011;5596;46.826;8.650;2022-11-20T12:57:53;2.20;;;1.50;;
11084;SDS011;5596;46.826;8.650;2022-11-20T13:00:23;1.70;;;1.60;;
11084;SDS011;5596;46.826;8.650;2022-11-20T13:06:10;4.17;;;2.00;;
11084;SDS011;5596;46.826;8.650;2022-11-20T13:08:42;2.40;;;2.07;;
11084;SDS011;5596;46.826;8.650;2022-11-20T13:11:17;2.73;;;1.83;;
11084;SDS011;5596;46.826;8.650;2022-11-20T13:13:56;2.00;;;1.73;;
11084;SDS011;5596;46.826;8.650;2022-11-20T13:16:36;2.00;;;1.80;;
11084;SDS011;5596;46.826;8.650;2022-11-20T13:19:09;2.57;;;1.50;;
11084;SDS011;5596;46.826;8.650;2022-11-20T13:21:40;4.40;;;2.67;;
11084;SDS011;5596;46.826;8.650;2022-11-20T13:24:20;2.00;;;1.77;;
11084;SDS011;5596;46.826;8.650;2022-11-20T13:27:05;2.10;;;1.57;;
11084;SDS011;5596;46.826;8.650;2022-11-20T13:29:46;2.10;;;1.57;;
11084;SDS011;5596;46.826;8.650;2022-11-20T13:32:24;2.20;;;1.50;;
11084;SDS011;5596;46.826;8.650;2022-11-20T13:34:58;4.70;;;1.83;;
11084;SDS011;5596;46.826;8.650;2022-11-20T13:37:28;2.30;;;1.40;;
11084;SDS011;5596;46.826;8.650;2022-11-20T13:42:56;3.37;;;1.90;;
11084;SDS011;5596;46.826;8.650;2022-11-20T13:45:33;2.17;;;1.50;;
11084;SDS011;5596;46.826;8.650;2022-11-20T13:48:01;2.70;;;1.50;;
11084;SDS011;5596;46.826;8.650;2022-11-20T13:50:43;1.40;;;1.30;;
11084;SDS011;5596;46.826;8.650;2022-11-20T13:53:22;2.03;;;1.60;;
11084;SDS011;5596;46.826;8.650;2022-11-20T13:56:00;2.00;;;1.80;;
11084;SDS011;5596;46.826;8.650;2022-11-20T14:01:26;2.73;;;1.80;;
11084;SDS011;5596;46.826;8.650;2022-11-20T14:03:56;2.30;;;1.33;;
11084;SDS011;5596;46.826;8.650;2022-11-20T14:06:25;1.70;;;1.23;;
11084;SDS011;5596;46.826;8.650;2022-11-20T14:08:55;1.50;;;1.40;;
11084;SDS011;5596;46.826;8.650;2022-11-20T14:11:23;2.30;;;1.30;;
11084;SDS011;5596;46.826;8.650;2022-11-20T14:13:59;1.37;;;1.10;;
11084;SDS011;5596;46.826;8.650;2022-11-20T14:16:28;1.13;;;1.03;;
11084;SDS011;5596;46.826;8.650;2022-11-20T14:19:08;1.50;;;1.37;;
11084;SDS011;5596;46.826;8.650;2022-11-20T14:21:54;2.10;;;1.30;;
11084;SDS011;5596;46.826;8.650;2022-11-20T14:24:33;1.83;;;1.40;;
11084;SDS011;5596;46.826;8.650;2022-11-20T14:27:01;2.97;;;1.20;;
11084;SDS011;5596;46.826;8.650;2022-11-20T14:29:34;1.43;;;1.30;;
11084;SDS011;5596;46.826;8.650;2022-11-20T14:32:04;1.57;;;1.37;;
11084;SDS011;5596;46.826;8.650;2022-11-20T14:34:35;2.10;;;1.40;;
11084;SDS011;5596;46.826;8.650;2022-11-20T14:37:09;1.80;;;1.37;;
11084;SDS011;5596;46.826;8.650;2022-11-20T14:39:40;1.93;;;1.43;;
11084;SDS011;5596;46.826;8.650;2022-11-20T14:42:15;1.13;;;1.03;;
11084;SDS011;5596;46.826;8.650;2022-11-20T14:44:46;2.00;;;1.50;;
11084;SDS011;5596;46.826;8.650;2022-11-20T14:47:18;1.40;;;1.30;;
11084;SDS011;5596;46.826;8.650;2022-11-20T14:49:48;1.33;;;1.20;;
11084;SDS011;5596;46.826;8.650;2022-11-20T14:52:17;1.60;;;1.27;;
11084;SDS011;5596;46.826;8.650;2022-11-20T14:54:46;1.80;;;1.30;;
11084;SDS011;5596;46.826;8.650;2022-11-20T14:57:22;1.30;;;1.20;;
11084;SDS011;5596;46.826;8.650;2022-11-20T15:00:02;1.40;;;1.30;;
11084;SDS011;5596;46.826;8.650;2022-11-20T15:02:32;1.77;;;1.30;;
11084;SDS011;5596;46.826;8.650;2022-11-20T15:04:59;1.10;;;1.00;;
11084;SDS011;5596;46.826;8.650;2022-11-20T15:07:29;1.53;;;1.10;;
11084;SDS011;5596;46.826;8.650;2022-11-20T15:10:01;1.23;;;1.07;;
11084;SDS011;5596;46.826;8.650;2022-11-20T15:12:30;3.30;;;1.40;;
11084;SDS011;5596;46.826;8.650;2022-11-20T15:14:59;1.00;;;1.00;;
11084;SDS011;5596;46.826;8.650;2022-11-20T15:17:28;1.30;;;1.20;;
11084;SDS011;5596;46.826;8.650;2022-11-20T15:19:55;1.60;;;1.40;;
11084;SDS011;5596;46.826;8.650;2022-11-20T15:22:22;1.73;;;1.43;;
11084;SDS011;5596;46.826;8.650;2022-11-20T15:24:49;2.27;;;1.60;;
11084;SDS011;5596;46.826;8.650;2022-11-20T15:27:16;1.77;;;1.53;;
11084;SDS011;5596;46.826;8.650;2022-11-20T15:29:43;1.80;;;1.20;;
11084;SDS011;5596;46.826;8.650;2022-11-20T15:32:11;2.13;;;1.17;;
11084;SDS011;5596;46.826;8.650;2022-11-20T15:34:39;2.17;;;1.83;;
11084;SDS011;5596;46.826;8.650;2022-11-20T15:37:07;3.03;;;2.13;;